Terminal Aerodrome Forecast
Issued by NWS

Home | Current Version | Previous Version | Text Only | Print | Product List | Glossary On
Versions: 1 2 3 4 5 6 7 8 9 10 11 12 13 14 15 16 17 18 19 20
000
FTUS42 KFFC 021100
TAFPDK
TAF
KPDK 021126Z 0212/0312 00000KT P6SM SKC
     FM021600 17004KT P6SM SCT045
     FM030000 16003KT P6SM FEW250
     FM030900 17004KT P6SM OVC050
     FM031000 16004KT 6SM -SHRA BR OVC025=

USA.gov is the U.S. government's official web portal to all federal, state and local government web resources and services.